UAL2278 KSAN-KSFO
Flight info
| Callsign | UAL2278 |
|---|---|
| Flight time | 1h 4m |
| Altitude | 36000 |
| Route | PADRZ2 IKAYE RIZIN SPLNT STOKD SERFR SERFR4 |
| Aircraft | B739/M-SDE2E3FGHIRWXY/LB1 |
Departure
| Time | 2026-04-20 03:04 |
|---|---|
| Airport | San Diego International Airport (KSAN) |
Arrival
| Time | 2026-04-20 04:08 |
|---|---|
| Airport | San Francisco International Airport (KSFO) |
| Time | Latitude | Longitude | Altitude | Speed | Heading |
|---|---|---|---|---|---|
| 2026-04-20 02:38 | 32.73459 | -117.20453 | 20 ft | 0 kts | 134° |
| 2026-04-20 02:51 | 32.73464 | -117.20459 | 20 ft | 4 kts | 139° |
| 2026-04-20 02:51 | 32.73482 | -117.20482 | 20 ft | 4 kts | 126° |
| 2026-04-20 02:52 | 32.73495 | -117.20508 | 18 ft | 4 kts | 101° |
| 2026-04-20 02:52 | 32.73492 | -117.20535 | 18 ft | 4 kts | 54° |
| 2026-04-20 02:52 | 32.73478 | -117.20552 | 18 ft | 2 kts | 41° |
| 2026-04-20 02:52 | 32.73476 | -117.20555 | 18 ft | 1 kts | 41° |
| 2026-04-20 02:56 | 32.73490 | -117.20538 | 18 ft | 7 kts | 48° |
| 2026-04-20 02:56 | 32.73520 | -117.20496 | 18 ft | 1 kts | 50° |
| 2026-04-20 02:57 | 32.73526 | -117.20487 | 17 ft | 1 kts | 50° |
| 2026-04-20 02:57 | 32.73531 | -117.20480 | 17 ft | 1 kts | 50° |
| 2026-04-20 02:57 | 32.73536 | -117.20473 | 16 ft | 0 kts | 51° |
| 2026-04-20 02:57 | 32.73537 | -117.20471 | 16 ft | 0 kts | 51° |
| 2026-04-20 02:58 | 32.73545 | -117.20460 | 16 ft | 6 kts | 51° |
| 2026-04-20 02:58 | 32.73581 | -117.20382 | 19 ft | 15 kts | 80° |
| 2026-04-20 02:59 | 32.73561 | -117.20232 | 21 ft | 22 kts | 106° |
| 2026-04-20 02:59 | 32.73515 | -117.20042 | 24 ft | 25 kts | 106° |
| 2026-04-20 02:59 | 32.73468 | -117.19843 | 23 ft | 24 kts | 105° |
| 2026-04-20 02:59 | 32.73420 | -117.19644 | 22 ft | 26 kts | 108° |
| 2026-04-20 03:00 | 32.73367 | -117.19438 | 23 ft | 27 kts | 106° |
| 2026-04-20 03:00 | 32.73316 | -117.19211 | 21 ft | 29 kts | 107° |
| 2026-04-20 03:00 | 32.73258 | -117.18984 | 24 ft | 28 kts | 106° |
| 2026-04-20 03:00 | 32.73206 | -117.18768 | 23 ft | 26 kts | 106° |
| 2026-04-20 03:01 | 32.73156 | -117.18562 | 21 ft | 27 kts | 105° |
| 2026-04-20 03:01 | 32.73103 | -117.18342 | 20 ft | 28 kts | 106° |
| 2026-04-20 03:01 | 32.73048 | -117.18108 | 17 ft | 31 kts | 105° |
| 2026-04-20 03:01 | 32.72986 | -117.17864 | 17 ft | 30 kts | 106° |
| 2026-04-20 03:02 | 32.72949 | -117.17704 | 16 ft | 7 kts | 96° |
| 2026-04-20 03:02 | 32.72957 | -117.17650 | 17 ft | 7 kts | 70° |
| 2026-04-20 03:02 | 32.72979 | -117.17596 | 19 ft | 10 kts | 47° |
| 2026-04-20 03:02 | 32.73028 | -117.17616 | 18 ft | 8 kts | 292° |
| 2026-04-20 03:03 | 32.73033 | -117.17638 | 18 ft | 5 kts | 287° |
| 2026-04-20 03:03 | 32.73114 | -117.17968 | 15 ft | 79 kts | 285° |
| 2026-04-20 03:03 | 32.73329 | -117.18855 | 20 ft | 142 kts | 286° |
| 2026-04-20 03:03 | 32.73633 | -117.20132 | 280 ft | 168 kts | 285° |
| 2026-04-20 03:04 | 32.73997 | -117.21472 | 876 ft | 177 kts | 299° |
| 2026-04-20 03:04 | 32.74456 | -117.22280 | 1295 ft | 180 kts | 306° |
| 2026-04-20 03:04 | 32.75436 | -117.23945 | 2039 ft | 198 kts | 304° |
| 2026-04-20 03:04 | 32.76266 | -117.25395 | 2264 ft | 225 kts | 303° |
| 2026-04-20 03:05 | 32.77177 | -117.26992 | 2724 ft | 240 kts | 303° |
| 2026-04-20 03:05 | 32.77832 | -117.28142 | 2913 ft | 259 kts | 303° |
| 2026-04-20 03:05 | 32.78865 | -117.29955 | 3557 ft | 268 kts | 303° |
| 2026-04-20 03:05 | 32.79918 | -117.31793 | 4450 ft | 270 kts | 304° |
| 2026-04-20 03:06 | 32.81044 | -117.33598 | 5273 ft | 274 kts | 306° |
| 2026-04-20 03:06 | 32.82217 | -117.35401 | 6064 ft | 278 kts | 307° |
| 2026-04-20 03:06 | 32.83413 | -117.37230 | 6865 ft | 282 kts | 307° |
| 2026-04-20 03:06 | 32.84623 | -117.39088 | 7615 ft | 286 kts | 307° |
| 2026-04-20 03:07 | 32.85849 | -117.40978 | 8357 ft | 291 kts | 307° |
| 2026-04-20 03:07 | 32.87090 | -117.42897 | 9083 ft | 295 kts | 306° |
| 2026-04-20 03:07 | 32.88348 | -117.44848 | 9794 ft | 299 kts | 306° |
| 2026-04-20 03:07 | 32.89627 | -117.46835 | 10384 ft | 310 kts | 306° |
| 2026-04-20 03:08 | 32.90986 | -117.48949 | 10558 ft | 333 kts | 306° |
| 2026-04-20 03:08 | 32.92443 | -117.51216 | 10744 ft | 355 kts | 306° |
| 2026-04-20 03:08 | 32.93968 | -117.53589 | 11160 ft | 366 kts | 306° |
| 2026-04-20 03:08 | 32.95509 | -117.55988 | 11756 ft | 371 kts | 306° |
| 2026-04-20 03:09 | 32.97081 | -117.58439 | 12428 ft | 374 kts | 306° |
| 2026-04-20 03:09 | 32.98669 | -117.60917 | 13072 ft | 377 kts | 306° |
| 2026-04-20 03:09 | 33.00265 | -117.63410 | 13749 ft | 379 kts | 306° |
| 2026-04-20 03:09 | 33.01871 | -117.65920 | 14415 ft | 382 kts | 306° |
| 2026-04-20 03:10 | 33.03486 | -117.68443 | 15028 ft | 385 kts | 306° |
| 2026-04-20 03:10 | 33.05112 | -117.70989 | 15624 ft | 388 kts | 306° |
| 2026-04-20 03:10 | 33.06812 | -117.73518 | 16204 ft | 392 kts | 313° |
| 2026-04-20 03:10 | 33.08847 | -117.75705 | 16809 ft | 395 kts | 319° |
| 2026-04-20 03:11 | 33.10988 | -117.77780 | 17375 ft | 398 kts | 320° |
| 2026-04-20 03:11 | 33.13141 | -117.79874 | 17907 ft | 401 kts | 319° |
| 2026-04-20 03:11 | 33.15295 | -117.82019 | 18442 ft | 404 kts | 318° |
| 2026-04-20 03:11 | 33.17421 | -117.84175 | 18957 ft | 407 kts | 318° |
| 2026-04-20 03:12 | 33.19571 | -117.86378 | 19536 ft | 408 kts | 317° |
| 2026-04-20 03:12 | 33.21651 | -117.88693 | 20072 ft | 409 kts | 314° |
| 2026-04-20 03:12 | 33.23689 | -117.91111 | 20573 ft | 412 kts | 313° |
| 2026-04-20 03:12 | 33.25704 | -117.93563 | 21086 ft | 414 kts | 313° |
| 2026-04-20 03:13 | 33.27723 | -117.96025 | 21578 ft | 416 kts | 313° |
| 2026-04-20 03:13 | 33.29762 | -117.98503 | 22048 ft | 419 kts | 313° |
| 2026-04-20 03:13 | 33.31817 | -118.00985 | 22509 ft | 421 kts | 313° |
| 2026-04-20 03:13 | 33.33886 | -118.03473 | 22993 ft | 422 kts | 313° |
| 2026-04-20 03:14 | 33.35963 | -118.05964 | 23435 ft | 424 kts | 313° |
| 2026-04-20 03:14 | 33.38052 | -118.08468 | 23855 ft | 426 kts | 313° |
| 2026-04-20 03:14 | 33.40158 | -118.10991 | 24265 ft | 429 kts | 313° |
| 2026-04-20 03:14 | 33.42267 | -118.13519 | 24694 ft | 430 kts | 313° |
| 2026-04-20 03:15 | 33.44386 | -118.16059 | 25140 ft | 431 kts | 313° |
| 2026-04-20 03:15 | 33.46509 | -118.18607 | 25559 ft | 432 kts | 313° |
| 2026-04-20 03:15 | 33.48610 | -118.21130 | 25952 ft | 434 kts | 313° |
| 2026-04-20 03:15 | 33.50746 | -118.23697 | 26355 ft | 435 kts | 313° |
| 2026-04-20 03:16 | 33.52883 | -118.26269 | 26740 ft | 436 kts | 313° |
| 2026-04-20 03:16 | 33.55027 | -118.28850 | 27086 ft | 438 kts | 313° |
| 2026-04-20 03:16 | 33.57177 | -118.31441 | 27454 ft | 439 kts | 314° |
| 2026-04-20 03:16 | 33.59335 | -118.34043 | 27818 ft | 440 kts | 314° |
| 2026-04-20 03:17 | 33.61498 | -118.36654 | 28182 ft | 441 kts | 314° |
| 2026-04-20 03:17 | 33.63663 | -118.39268 | 28541 ft | 442 kts | 314° |
| 2026-04-20 03:17 | 33.65834 | -118.41891 | 28888 ft | 443 kts | 314° |
| 2026-04-20 03:17 | 33.67589 | -118.44013 | 29180 ft | 443 kts | 314° |
| 2026-04-20 03:18 | 33.69761 | -118.46644 | 29643 ft | 441 kts | 314° |
| 2026-04-20 03:18 | 33.71911 | -118.49246 | 30195 ft | 436 kts | 314° |
| 2026-04-20 03:18 | 33.74030 | -118.51813 | 30774 ft | 431 kts | 314° |
| 2026-04-20 03:18 | 33.76138 | -118.54371 | 31131 ft | 431 kts | 314° |
| 2026-04-20 03:19 | 33.78247 | -118.56932 | 31401 ft | 432 kts | 314° |
| 2026-04-20 03:19 | 33.80359 | -118.59498 | 31744 ft | 431 kts | 314° |
| 2026-04-20 03:19 | 33.82463 | -118.62056 | 32165 ft | 428 kts | 313° |
| 2026-04-20 03:19 | 33.84552 | -118.64596 | 32563 ft | 426 kts | 313° |
| 2026-04-20 03:20 | 33.86635 | -118.67132 | 32886 ft | 425 kts | 313° |
| 2026-04-20 03:20 | 33.88711 | -118.69661 | 33187 ft | 425 kts | 313° |
| 2026-04-20 03:20 | 33.90788 | -118.72193 | 33496 ft | 424 kts | 313° |
| 2026-04-20 03:20 | 33.92853 | -118.74714 | 33864 ft | 421 kts | 313° |
| 2026-04-20 03:21 | 33.94906 | -118.77220 | 34192 ft | 420 kts | 313° |
| 2026-04-20 03:21 | 33.96954 | -118.79725 | 34438 ft | 420 kts | 313° |
| 2026-04-20 03:21 | 33.99005 | -118.82234 | 34603 ft | 422 kts | 313° |
| 2026-04-20 03:21 | 34.01065 | -118.84755 | 34834 ft | 421 kts | 313° |
| 2026-04-20 03:22 | 34.03120 | -118.87272 | 35071 ft | 421 kts | 312° |
| 2026-04-20 03:22 | 34.05181 | -118.89798 | 35226 ft | 423 kts | 312° |
| 2026-04-20 03:22 | 34.07221 | -118.92299 | 35428 ft | 423 kts | 312° |
| 2026-04-20 03:22 | 34.09286 | -118.94834 | 35695 ft | 422 kts | 312° |
| 2026-04-20 03:23 | 34.11339 | -118.97356 | 35941 ft | 421 kts | 311° |
| 2026-04-20 03:23 | 34.15295 | -119.02602 | 35970 ft | 421 kts | 301° |
| 2026-04-20 03:24 | 34.18374 | -119.08580 | 35971 ft | 418 kts | 299° |
| 2026-04-20 03:24 | 34.21356 | -119.14598 | 35970 ft | 416 kts | 299° |
| 2026-04-20 03:25 | 34.24369 | -119.20550 | 35970 ft | 414 kts | 300° |
| 2026-04-20 03:25 | 34.27399 | -119.26469 | 35974 ft | 413 kts | 300° |
| 2026-04-20 03:26 | 34.30422 | -119.32368 | 35969 ft | 412 kts | 300° |
| 2026-04-20 03:26 | 34.32932 | -119.37274 | 35972 ft | 413 kts | 300° |
| 2026-04-20 03:27 | 34.36444 | -119.44155 | 35979 ft | 413 kts | 300° |
| 2026-04-20 03:27 | 34.39469 | -119.50091 | 35982 ft | 415 kts | 300° |
| 2026-04-20 03:28 | 34.42937 | -119.55701 | 35985 ft | 419 kts | 311° |
| 2026-04-20 03:28 | 34.49131 | -119.63213 | 35983 ft | 420 kts | 312° |
| 2026-04-20 03:29 | 34.53249 | -119.68229 | 35971 ft | 420 kts | 312° |
| 2026-04-20 03:29 | 34.57361 | -119.73280 | 35971 ft | 420 kts | 311° |
| 2026-04-20 03:30 | 34.61461 | -119.78336 | 35973 ft | 420 kts | 311° |
| 2026-04-20 03:30 | 34.65552 | -119.83390 | 35979 ft | 419 kts | 311° |
| 2026-04-20 03:31 | 34.69637 | -119.88449 | 35980 ft | 419 kts | 311° |
| 2026-04-20 03:31 | 34.73695 | -119.93480 | 35974 ft | 419 kts | 311° |
| 2026-04-20 03:32 | 34.77776 | -119.98542 | 35977 ft | 419 kts | 311° |
| 2026-04-20 03:32 | 34.81859 | -120.03618 | 35986 ft | 419 kts | 311° |
| 2026-04-20 03:33 | 34.85934 | -120.08687 | 35977 ft | 418 kts | 311° |
| 2026-04-20 03:33 | 34.89998 | -120.13754 | 35997 ft | 418 kts | 311° |
| 2026-04-20 03:34 | 34.94027 | -120.18784 | 35998 ft | 416 kts | 311° |
| 2026-04-20 03:34 | 34.98064 | -120.23833 | 35992 ft | 415 kts | 311° |
| 2026-04-20 03:35 | 35.02095 | -120.28883 | 35998 ft | 415 kts | 310° |
| 2026-04-20 03:35 | 35.06118 | -120.33930 | 35999 ft | 415 kts | 311° |
| 2026-04-20 03:36 | 35.10183 | -120.38940 | 35991 ft | 415 kts | 313° |
| 2026-04-20 03:36 | 35.14416 | -120.43688 | 35996 ft | 416 kts | 314° |
| 2026-04-20 03:37 | 35.18711 | -120.48435 | 35998 ft | 416 kts | 314° |
| 2026-04-20 03:37 | 35.22985 | -120.53205 | 35989 ft | 415 kts | 314° |
| 2026-04-20 03:38 | 35.27239 | -120.57987 | 35990 ft | 416 kts | 313° |
| 2026-04-20 03:38 | 35.31504 | -120.62797 | 35999 ft | 417 kts | 314° |
| 2026-04-20 03:39 | 35.35781 | -120.67626 | 35991 ft | 418 kts | 313° |
| 2026-04-20 03:39 | 35.40071 | -120.72474 | 35992 ft | 419 kts | 313° |
| 2026-04-20 03:40 | 35.44330 | -120.77296 | 35999 ft | 420 kts | 313° |
| 2026-04-20 03:40 | 35.47203 | -120.80551 | 35998 ft | 420 kts | 313° |
| 2026-04-20 03:41 | 35.53292 | -120.86538 | 35993 ft | 422 kts | 319° |
| 2026-04-20 03:41 | 35.58001 | -120.90842 | 36001 ft | 422 kts | 319° |
| 2026-04-20 03:42 | 35.61901 | -120.94431 | 35995 ft | 421 kts | 319° |
| 2026-04-20 03:42 | 35.67284 | -120.99423 | 35999 ft | 408 kts | 318° |
| 2026-04-20 03:43 | 35.71789 | -121.03625 | 35968 ft | 406 kts | 318° |
| 2026-04-20 03:43 | 35.74052 | -121.05741 | 35576 ft | 408 kts | 318° |
| 2026-04-20 03:43 | 35.76278 | -121.07821 | 35106 ft | 406 kts | 318° |
| 2026-04-20 03:44 | 35.78515 | -121.09912 | 34659 ft | 401 kts | 318° |
| 2026-04-20 03:44 | 35.80734 | -121.11988 | 34170 ft | 398 kts | 318° |
| 2026-04-20 03:44 | 35.82933 | -121.14047 | 33696 ft | 395 kts | 318° |
| 2026-04-20 03:44 | 35.85108 | -121.16085 | 33214 ft | 392 kts | 318° |
| 2026-04-20 03:45 | 35.86543 | -121.17432 | 32902 ft | 390 kts | 318° |
| 2026-04-20 03:45 | 35.89417 | -121.20130 | 32276 ft | 387 kts | 318° |
| 2026-04-20 03:45 | 35.91562 | -121.22146 | 31829 ft | 391 kts | 318° |
| 2026-04-20 03:45 | 35.93775 | -121.24233 | 31388 ft | 410 kts | 318° |
| 2026-04-20 03:46 | 35.96094 | -121.26422 | 30894 ft | 428 kts | 319° |
| 2026-04-20 03:46 | 35.98486 | -121.28673 | 30372 ft | 435 kts | 319° |
| 2026-04-20 03:46 | 36.00891 | -121.30930 | 29850 ft | 432 kts | 319° |
| 2026-04-20 03:46 | 36.03282 | -121.33177 | 29342 ft | 429 kts | 318° |
| 2026-04-20 03:47 | 36.05640 | -121.35400 | 28827 ft | 425 kts | 318° |
| 2026-04-20 03:47 | 36.08007 | -121.37563 | 28366 ft | 422 kts | 321° |
| 2026-04-20 03:47 | 36.10461 | -121.39549 | 27910 ft | 421 kts | 323° |
| 2026-04-20 03:47 | 36.12925 | -121.41429 | 27429 ft | 421 kts | 324° |
| 2026-04-20 03:48 | 36.15427 | -121.43314 | 26960 ft | 420 kts | 324° |
| 2026-04-20 03:48 | 36.17912 | -121.45197 | 26473 ft | 418 kts | 324° |
| 2026-04-20 03:48 | 36.20369 | -121.47079 | 26039 ft | 415 kts | 323° |
| 2026-04-20 03:48 | 36.22814 | -121.48970 | 25586 ft | 414 kts | 323° |
| 2026-04-20 03:49 | 36.25262 | -121.50874 | 25123 ft | 414 kts | 323° |
| 2026-04-20 03:49 | 36.27700 | -121.52780 | 24678 ft | 414 kts | 323° |
| 2026-04-20 03:49 | 36.30139 | -121.54689 | 24216 ft | 414 kts | 323° |
| 2026-04-20 03:49 | 36.32573 | -121.56596 | 23762 ft | 414 kts | 323° |
| 2026-04-20 03:50 | 36.35008 | -121.58505 | 23318 ft | 413 kts | 323° |
| 2026-04-20 03:50 | 36.37428 | -121.60404 | 22874 ft | 411 kts | 323° |
| 2026-04-20 03:50 | 36.39842 | -121.62297 | 22434 ft | 410 kts | 323° |
| 2026-04-20 03:50 | 36.42247 | -121.64186 | 21993 ft | 409 kts | 323° |
| 2026-04-20 03:51 | 36.44646 | -121.66072 | 21547 ft | 407 kts | 323° |
| 2026-04-20 03:51 | 36.47028 | -121.67944 | 21109 ft | 404 kts | 323° |
| 2026-04-20 03:51 | 36.49393 | -121.69804 | 20683 ft | 400 kts | 323° |
| 2026-04-20 03:51 | 36.51730 | -121.71643 | 20307 ft | 395 kts | 323° |
| 2026-04-20 03:52 | 36.54036 | -121.73463 | 19900 ft | 391 kts | 323° |
| 2026-04-20 03:52 | 36.56325 | -121.75273 | 19470 ft | 388 kts | 323° |
| 2026-04-20 03:52 | 36.58563 | -121.77045 | 19059 ft | 386 kts | 323° |
| 2026-04-20 03:52 | 36.60820 | -121.78834 | 18632 ft | 383 kts | 323° |
| 2026-04-20 03:53 | 36.63060 | -121.80611 | 18218 ft | 381 kts | 323° |
| 2026-04-20 03:53 | 36.65290 | -121.82380 | 17805 ft | 379 kts | 323° |
| 2026-04-20 03:53 | 36.67503 | -121.84137 | 17400 ft | 377 kts | 323° |
| 2026-04-20 03:53 | 36.69707 | -121.85888 | 16996 ft | 375 kts | 323° |
| 2026-04-20 03:54 | 36.71188 | -121.87063 | 16733 ft | 374 kts | 323° |
| 2026-04-20 03:54 | 36.74117 | -121.89303 | 16188 ft | 374 kts | 331° |
| 2026-04-20 03:54 | 36.75782 | -121.90040 | 15917 ft | 378 kts | 343° |
| 2026-04-20 03:54 | 36.78345 | -121.90746 | 15546 ft | 376 kts | 346° |
| 2026-04-20 03:55 | 36.80905 | -121.91396 | 15148 ft | 375 kts | 346° |
| 2026-04-20 03:55 | 36.83454 | -121.92055 | 14754 ft | 374 kts | 346° |
| 2026-04-20 03:55 | 36.86001 | -121.92736 | 14363 ft | 373 kts | 346° |
| 2026-04-20 03:55 | 36.88536 | -121.93434 | 13971 ft | 372 kts | 346° |
| 2026-04-20 03:56 | 36.91064 | -121.94139 | 13583 ft | 372 kts | 346° |
| 2026-04-20 03:56 | 36.93548 | -121.94835 | 13197 ft | 371 kts | 346° |
| 2026-04-20 03:56 | 36.96056 | -121.95576 | 12860 ft | 368 kts | 343° |
| 2026-04-20 03:56 | 36.98489 | -121.96468 | 12600 ft | 363 kts | 341° |
| 2026-04-20 03:57 | 37.00894 | -121.97428 | 12219 ft | 363 kts | 340° |
| 2026-04-20 03:57 | 37.03280 | -121.98396 | 11810 ft | 356 kts | 340° |
| 2026-04-20 03:57 | 37.05604 | -121.99332 | 11413 ft | 346 kts | 341° |
| 2026-04-20 03:57 | 37.07870 | -122.00233 | 11028 ft | 337 kts | 341° |
| 2026-04-20 03:58 | 37.10076 | -122.01103 | 10645 ft | 329 kts | 341° |
| 2026-04-20 03:58 | 37.12233 | -122.01949 | 10263 ft | 321 kts | 341° |
| 2026-04-20 03:58 | 37.14349 | -122.02778 | 10052 ft | 315 kts | 342° |
| 2026-04-20 03:58 | 37.16425 | -122.03592 | 9781 ft | 311 kts | 342° |
| 2026-04-20 03:59 | 37.18489 | -122.04402 | 9437 ft | 311 kts | 342° |
| 2026-04-20 03:59 | 37.20552 | -122.05211 | 9081 ft | 310 kts | 343° |
| 2026-04-20 03:59 | 37.22611 | -122.06019 | 8721 ft | 310 kts | 343° |
| 2026-04-20 03:59 | 37.24658 | -122.06822 | 8384 ft | 307 kts | 343° |
| 2026-04-20 04:00 | 37.26695 | -122.07621 | 8050 ft | 306 kts | 343° |
| 2026-04-20 04:00 | 37.28696 | -122.08407 | 7670 ft | 306 kts | 343° |
| 2026-04-20 04:00 | 37.30729 | -122.09206 | 7267 ft | 306 kts | 343° |
| 2026-04-20 04:00 | 37.32764 | -122.10008 | 6866 ft | 306 kts | 343° |
| 2026-04-20 04:01 | 37.34774 | -122.10801 | 6436 ft | 299 kts | 343° |
| 2026-04-20 04:01 | 37.36732 | -122.11574 | 6051 ft | 291 kts | 343° |
| 2026-04-20 04:01 | 37.38651 | -122.12302 | 5680 ft | 286 kts | 345° |
| 2026-04-20 04:01 | 37.40549 | -122.12950 | 5401 ft | 280 kts | 345° |
| 2026-04-20 04:02 | 37.42300 | -122.13539 | 5072 ft | 274 kts | 345° |
| 2026-04-20 04:02 | 37.43437 | -122.13925 | 4854 ft | 270 kts | 345° |
| 2026-04-20 04:02 | 37.44759 | -122.14375 | 4602 ft | 265 kts | 345° |
| 2026-04-20 04:02 | 37.46511 | -122.14957 | 4292 ft | 256 kts | 345° |
| 2026-04-20 04:03 | 37.48204 | -122.15512 | 3994 ft | 247 kts | 345° |
| 2026-04-20 04:03 | 37.49830 | -122.16046 | 3707 ft | 237 kts | 344° |
| 2026-04-20 04:03 | 37.51398 | -122.16562 | 3407 ft | 228 kts | 343° |
| 2026-04-20 04:03 | 37.52893 | -122.17093 | 3122 ft | 218 kts | 335° |
| 2026-04-20 04:04 | 37.53989 | -122.18271 | 2871 ft | 204 kts | 304° |
| 2026-04-20 04:04 | 37.54684 | -122.19739 | 2745 ft | 190 kts | 299° |
| 2026-04-20 04:04 | 37.55324 | -122.21238 | 2536 ft | 194 kts | 297° |
| 2026-04-20 04:04 | 37.55939 | -122.22713 | 2293 ft | 187 kts | 297° |
| 2026-04-20 04:05 | 37.56523 | -122.24120 | 2060 ft | 174 kts | 296° |
| 2026-04-20 04:05 | 37.57056 | -122.25403 | 1857 ft | 158 kts | 295° |
| 2026-04-20 04:05 | 37.57554 | -122.26599 | 1642 ft | 152 kts | 295° |
| 2026-04-20 04:05 | 37.58053 | -122.27798 | 1443 ft | 156 kts | 295° |
| 2026-04-20 04:06 | 37.58559 | -122.29015 | 1246 ft | 158 kts | 294° |
| 2026-04-20 04:06 | 37.59072 | -122.30246 | 1035 ft | 160 kts | 295° |
| 2026-04-20 04:06 | 37.59573 | -122.31449 | 837 ft | 161 kts | 295° |
| 2026-04-20 04:06 | 37.60093 | -122.32693 | 613 ft | 159 kts | 295° |
| 2026-04-20 04:07 | 37.60609 | -122.33928 | 396 ft | 158 kts | 295° |
| 2026-04-20 04:07 | 37.61119 | -122.35158 | 171 ft | 158 kts | 296° |
| 2026-04-20 04:07 | 37.61627 | -122.36367 | 31 ft | 150 kts | 296° |
| 2026-04-20 04:07 | 37.62070 | -122.37429 | 21 ft | 121 kts | 297° |
| 2026-04-20 04:08 | 37.62405 | -122.38231 | 21 ft | 77 kts | 298° |
| 2026-04-20 04:08 | 37.62503 | -122.38621 | 21 ft | 42 kts | 268° |
| 2026-04-20 04:08 | 37.62440 | -122.38884 | 21 ft | 25 kts | 213° |
| 2026-04-20 04:08 | 37.62323 | -122.38965 | 21 ft | 13 kts | 208° |
| 2026-04-20 04:09 | 37.62247 | -122.39023 | 21 ft | 12 kts | 228° |
| 2026-04-20 04:09 | 37.62222 | -122.39100 | 23 ft | 9 kts | 235° |
| 2026-04-20 04:09 | 37.62170 | -122.39143 | 21 ft | 9 kts | 210° |
| 2026-04-20 04:09 | 37.62135 | -122.39129 | 21 ft | 6 kts | 118° |
| 2026-04-20 04:10 | 37.62116 | -122.39086 | 21 ft | 6 kts | 118° |
| 2026-04-20 04:10 | 37.62111 | -122.39074 | 21 ft | 0 kts | 118° |